Time;durP1;ratioP1;P1;durP2;ratioP2;P2;SDS_P1;SDS_P2;PMS_P1;PMS_P2;Temp;Humidity;BMP_temperature;BMP_pressure;BME280_temperature;BME280_humidity;BME280_pressure;Samples;Min_cycle;Max_cycle;Signal;HPM_P1;HPM_P2
2023/09/22 00:01:05;;;;;;;1.15;0.75;;;;;;;;;;5083216;28;20546;-72
2023/09/22 00:03:35;;;;;;;2.55;0.70;;;;;;;;;;5080972;28;20459;-71
2023/09/22 00:06:04;;;;;;;1.42;0.60;;;;;;;;;;5080688;28;20509;-71
2023/09/22 00:08:33;;;;;;;2.05;0.75;;;;;;;;;;5081828;28;20055;-72
2023/09/22 00:11:01;;;;;;;2.55;0.60;;;;;;;;;;5083279;28;20125;-69
2023/09/22 00:13:29;;;;;;;2.78;0.75;;;;;;;;;;5077812;28;20109;-70
2023/09/22 00:15:58;;;;;;;1.33;0.68;;;;;;;;;;5081920;28;20066;-72
2023/09/22 00:18:28;;;;;;;1.10;0.60;;;;;;;;;;5083903;28;20047;-71
2023/09/22 00:20:56;;;;;;;1.50;0.60;;;;;;;;;;5082019;28;20136;-73
2023/09/22 00:23:24;;;;;;;0.90;0.60;;;;;;;;;;5078926;28;20102;-72
2023/09/22 00:25:53;;;;;;;2.97;0.80;;;;;;;;;;5083635;28;20343;-73
2023/09/22 00:28:21;;;;;;;0.73;0.50;;;;;;;;;;5084597;28;20076;-75
2023/09/22 00:30:50;;;;;;;1.45;0.43;;;;;;;;;;5083806;28;20131;-72
2023/09/22 00:33:18;;;;;;;1.88;0.50;;;;;;;;;;5082713;28;20040;-71
2023/09/22 00:35:48;;;;;;;0.60;0.40;;;;;;;;;;5084564;28;20109;-72
2023/09/22 00:38:16;;;;;;;0.20;0.20;;;;;;;;;;5077852;28;20052;-75
2023/09/22 00:40:45;;;;;;;1.95;0.40;;;;;;;;;;5074395;28;20501;-77
2023/09/22 00:43:15;;;;;;;0.50;0.28;;;;;;;;;;5081032;28;20529;-74
2023/09/22 00:45:45;;;;;;;0.30;0.20;;;;;;;;;;5085031;28;20056;-70
2023/09/22 00:48:18;;;;;;;0.40;0.20;;;;;;;;;;5084483;28;20040;-71
2023/09/22 00:50:47;;;;;;;0.75;0.30;;;;;;;;;;5082979;28;20052;-71
2023/09/22 00:53:17;;;;;;;0.28;0.20;;;;;;;;;;5078195;28;20506;-72
2023/09/22 00:55:47;;;;;;;0.50;0.20;;;;;;;;;;5082473;28;20048;-73
2023/09/22 00:58:15;;;;;;;1.70;0.15;;;;;;;;;;5083911;28;20068;-71
2023/09/22 01:00:44;;;;;;;2.40;0.30;;;;;;;;;;5081115;28;20036;-71
2023/09/22 01:03:13;;;;;;;0.22;0.10;;;;;;;;;;5081359;28;20083;-72
2023/09/22 01:05:42;;;;;;;0.10;0.10;;;;;;;;;;5080320;28;20062;-70
2023/09/22 01:08:10;;;;;;;0.30;0.20;;;;;;;;;;5083363;28;20148;-71
2023/09/22 01:10:42;;;;;;;0.47;0.30;;;;;;;;;;5079483;28;20128;-70
2023/09/22 01:13:11;;;;;;;1.35;0.20;;;;;;;;;;5082962;28;21187;-71
2023/09/22 01:15:40;;;;;;;0.60;0.40;;;;;;;;;;5081847;28;20577;-73
2023/09/22 01:18:10;;;;;;;0.77;0.20;;;;;;;;;;5078779;28;20044;-72
2023/09/22 01:20:43;;;;;;;0.65;0.30;;;;;;;;;;5081462;28;20182;-72
2023/09/22 01:23:13;;;;;;;0.32;0.28;;;;;;;;;;5079387;28;20063;-72
2023/09/22 01:25:42;;;;;;;0.30;0.25;;;;;;;;;;5079648;28;20067;-72
2023/09/22 01:28:11;;;;;;;0.10;0.10;;;;;;;;;;5082423;28;20051;-68
2023/09/22 01:30:39;;;;;;;0.45;0.30;;;;;;;;;;5085019;28;20134;-70
2023/09/22 01:33:08;;;;;;;0.30;0.20;;;;;;;;;;5076956;28;20536;-70
2023/09/22 01:35:38;;;;;;;0.75;0.50;;;;;;;;;;5078752;28;20048;-69
2023/09/22 01:38:12;;;;;;;1.23;0.60;;;;;;;;;;5080606;28;20052;-70
2023/09/22 01:40:42;;;;;;;0.57;0.30;;;;;;;;;;5081049;28;20056;-70
2023/09/22 01:43:11;;;;;;;0.32;0.20;;;;;;;;;;5081169;28;20282;-69
2023/09/22 01:45:40;;;;;;;0.47;0.22;;;;;;;;;;5085956;28;20125;-73
2023/09/22 01:48:09;;;;;;;0.57;0.30;;;;;;;;;;5074983;28;20054;-71
2023/09/22 01:50:39;;;;;;;0.68;0.30;;;;;;;;;;5078855;28;20040;-72
2023/09/22 01:53:09;;;;;;;0.57;0.20;;;;;;;;;;5079908;28;20047;-71
2023/09/22 01:55:38;;;;;;;3.03;0.10;;;;;;;;;;5086853;28;20139;-71
2023/09/22 01:58:08;;;;;;;0.38;0.13;;;;;;;;;;5083211;28;20040;-71
2023/09/22 02:00:37;;;;;;;0.30;0.20;;;;;;;;;;5081981;28;20051;-71
2023/09/22 02:03:06;;;;;;;0.90;0.35;;;;;;;;;;5082892;28;20147;-70
2023/09/22 02:05:34;;;;;;;0.10;0.10;;;;;;;;;;5081373;28;20285;-72
2023/09/22 02:08:02;;;;;;;0.25;0.20;;;;;;;;;;5085271;28;20126;-70
2023/09/22 02:10:31;;;;;;;0.45;0.20;;;;;;;;;;5081196;28;20133;-71
2023/09/22 02:12:59;;;;;;;0.93;0.20;;;;;;;;;;5081231;28;20097;-70
2023/09/22 02:15:29;;;;;;;0.20;0.20;;;;;;;;;;5077967;28;20146;-71
2023/09/22 02:17:58;;;;;;;2.35;0.40;;;;;;;;;;5080244;28;20138;-69
2023/09/22 02:20:27;;;;;;;0.55;0.40;;;;;;;;;;5078304;28;20041;-70
2023/09/22 02:22:56;;;;;;;0.35;0.30;;;;;;;;;;5080691;28;20549;-71
2023/09/22 02:25:25;;;;;;;2.05;0.40;;;;;;;;;;5084110;28;20056;-71
2023/09/22 02:27:55;;;;;;;0.32;0.10;;;;;;;;;;5082816;28;20040;-71
2023/09/22 02:30:24;;;;;;;0.40;0.28;;;;;;;;;;5080568;28;20056;-72
2023/09/22 02:32:54;;;;;;;0.80;0.20;;;;;;;;;;5083763;28;20051;-70
2023/09/22 02:35:23;;;;;;;0.77;0.40;;;;;;;;;;5077850;28;20043;-71
2023/09/22 02:37:52;;;;;;;2.47;0.40;;;;;;;;;;5079688;28;20044;-72
2023/09/22 02:40:20;;;;;;;0.40;0.20;;;;;;;;;;5080525;28;20051;-72
2023/09/22 02:42:49;;;;;;;1.25;0.30;;;;;;;;;;5085241;28;20090;-70
2023/09/22 02:45:17;;;;;;;0.60;0.40;;;;;;;;;;5090946;28;20048;-72
2023/09/22 02:47:47;;;;;;;0.45;0.28;;;;;;;;;;5088114;28;20176;-72
2023/09/22 02:50:18;;;;;;;0.20;0.20;;;;;;;;;;5088021;28;20048;-72
2023/09/22 02:52:47;;;;;;;0.57;0.32;;;;;;;;;;5086644;28;20055;-71
2023/09/22 02:55:16;;;;;;;0.43;0.20;;;;;;;;;;5087308;28;20077;-72
2023/09/22 02:57:47;;;;;;;0.70;0.40;;;;;;;;;;5078891;28;20048;-71
2023/09/22 03:00:18;;;;;;;0.75;0.30;;;;;;;;;;5085638;28;20036;-71
2023/09/22 03:02:48;;;;;;;0.45;0.25;;;;;;;;;;5084977;28;20121;-69
2023/09/22 03:05:18;;;;;;;0.40;0.40;;;;;;;;;;5084899;28;20066;-71
2023/09/22 03:07:49;;;;;;;0.60;0.32;;;;;;;;;;5083650;28;20070;-71
2023/09/22 03:10:18;;;;;;;2.78;0.45;;;;;;;;;;5087413;28;20052;-71
2023/09/22 03:12:47;;;;;;;0.98;0.30;;;;;;;;;;5080574;28;20082;-71
2023/09/22 03:15:16;;;;;;;1.02;0.40;;;;;;;;;;5085982;28;20048;-71
2023/09/22 03:17:44;;;;;;;0.90;0.40;;;;;;;;;;5081734;28;20401;-71
2023/09/22 03:20:13;;;;;;;0.57;0.30;;;;;;;;;;5083974;28;20297;-71
2023/09/22 03:22:43;;;;;;;0.30;0.20;;;;;;;;;;5081461;28;20475;-70
2023/09/22 03:25:12;;;;;;;1.48;0.45;;;;;;;;;;5081518;28;20497;-70
2023/09/22 03:27:40;;;;;;;0.47;0.30;;;;;;;;;;5083039;28;20473;-70
2023/09/22 03:30:10;;;;;;;0.30;0.20;;;;;;;;;;5076151;28;20902;-70
2023/09/22 03:32:39;;;;;;;0.52;0.30;;;;;;;;;;5080856;28;20571;-70
2023/09/22 03:35:09;;;;;;;0.50;0.35;;;;;;;;;;5081572;28;20068;-69
2023/09/22 03:37:37;;;;;;;0.70;0.43;;;;;;;;;;5081688;28;20113;-70
2023/09/22 03:40:10;;;;;;;2.25;0.40;;;;;;;;;;5081488;28;20056;-70
2023/09/22 03:42:38;;;;;;;2.85;0.93;;;;;;;;;;5081600;28;20444;-70
2023/09/22 03:45:07;;;;;;;2.42;0.70;;;;;;;;;;5086179;28;20093;-69
2023/09/22 03:47:36;;;;;;;4.70;1.10;;;;;;;;;;5082283;28;20071;-70
2023/09/22 03:50:06;;;;;;;3.97;0.80;;;;;;;;;;5082589;28;20131;-69
2023/09/22 03:52:34;;;;;;;1.63;0.40;;;;;;;;;;5080864;28;20515;-70
2023/09/22 03:55:03;;;;;;;0.40;0.30;;;;;;;;;;5084484;28;20036;-71
2023/09/22 03:57:33;;;;;;;0.85;0.35;;;;;;;;;;5082654;28;20564;-71
2023/09/22 04:00:07;;;;;;;0.60;0.40;;;;;;;;;;5085322;28;20044;-70
2023/09/22 04:02:35;;;;;;;0.20;0.20;;;;;;;;;;5082650;28;20044;-70
2023/09/22 04:05:05;;;;;;;1.13;0.40;;;;;;;;;;5080694;28;20579;-70
2023/09/22 04:07:33;;;;;;;0.60;0.30;;;;;;;;;;5081729;28;20068;-70
2023/09/22 04:10:02;;;;;;;1.00;0.28;;;;;;;;;;5086276;28;20068;-70
2023/09/22 04:12:30;;;;;;;0.50;0.30;;;;;;;;;;5082365;28;20145;-71
2023/09/22 04:15:00;;;;;;;1.25;0.35;;;;;;;;;;5079150;28;20129;-69
2023/09/22 04:17:29;;;;;;;0.40;0.20;;;;;;;;;;5081973;28;20427;-69
2023/09/22 04:19:58;;;;;;;0.82;0.32;;;;;;;;;;5079832;28;20051;-68
2023/09/22 04:22:29;;;;;;;1.20;0.30;;;;;;;;;;5084083;28;20537;-70
2023/09/22 04:25:00;;;;;;;1.38;0.40;;;;;;;;;;5082258;28;20097;-69
2023/09/22 04:27:32;;;;;;;0.30;0.30;;;;;;;;;;5077229;28;20654;-69
2023/09/22 04:30:03;;;;;;;0.35;0.20;;;;;;;;;;5080310;28;20051;-69
2023/09/22 04:32:33;;;;;;;2.50;0.43;;;;;;;;;;5080825;28;20492;-68
2023/09/22 04:35:02;;;;;;;1.45;0.43;;;;;;;;;;5076931;28;20501;-69
2023/09/22 04:37:30;;;;;;;1.02;0.82;;;;;;;;;;5082087;28;20138;-69
2023/09/22 04:39:58;;;;;;;0.90;0.80;;;;;;;;;;5081140;28;20079;-68
2023/09/22 04:42:27;;;;;;;3.88;0.68;;;;;;;;;;5081140;28;20446;-68
2023/09/22 04:44:56;;;;;;;1.52;0.73;;;;;;;;;;5080067;28;20072;-69
2023/09/22 04:47:25;;;;;;;0.98;0.80;;;;;;;;;;5079706;28;20056;-69
2023/09/22 04:49:54;;;;;;;2.10;0.80;;;;;;;;;;5082917;28;20405;-69
2023/09/22 04:52:22;;;;;;;2.65;0.82;;;;;;;;;;5075210;28;20452;-69
2023/09/22 04:54:51;;;;;;;1.60;0.70;;;;;;;;;;5081471;28;20044;-69
2023/09/22 04:57:19;;;;;;;2.83;0.90;;;;;;;;;;5077458;28;20076;-68
2023/09/22 04:59:47;;;;;;;1.65;0.82;;;;;;;;;;5082218;28;20566;-68
2023/09/22 05:02:16;;;;;;;0.70;0.70;;;;;;;;;;5075384;28;20118;-69
2023/09/22 05:04:47;;;;;;;3.55;0.70;;;;;;;;;;5081306;28;20074;-69
2023/09/22 05:07:16;;;;;;;1.75;0.90;;;;;;;;;;5081364;28;20669;-69
2023/09/22 05:09:44;;;;;;;0.70;0.70;;;;;;;;;;5084902;28;20056;-69
2023/09/22 05:12:13;;;;;;;1.02;0.70;;;;;;;;;;5081373;28;20059;-69
2023/09/22 05:14:41;;;;;;;1.77;0.80;;;;;;;;;;5082751;28;20056;-69
2023/09/22 05:17:09;;;;;;;0.88;0.75;;;;;;;;;;5080536;28;20135;-69
2023/09/22 05:19:38;;;;;;;0.88;0.77;;;;;;;;;;5082247;28;20102;-69
2023/09/22 05:22:08;;;;;;;0.98;0.80;;;;;;;;;;5085019;28;20040;-68
2023/09/22 05:24:36;;;;;;;2.63;0.80;;;;;;;;;;5085658;28;20075;-69
2023/09/22 05:27:05;;;;;;;2.25;0.77;;;;;;;;;;5074241;28;20243;-70
2023/09/22 05:29:33;;;;;;;0.82;0.80;;;;;;;;;;5082826;28;20051;-68
2023/09/22 05:32:02;;;;;;;0.82;0.70;;;;;;;;;;5078784;28;20067;-68
2023/09/22 05:34:30;;;;;;;1.02;0.85;;;;;;;;;;5079932;28;20436;-69
2023/09/22 05:37:00;;;;;;;0.80;0.70;;;;;;;;;;5080975;28;20336;-69
2023/09/22 05:39:30;;;;;;;3.33;0.80;;;;;;;;;;5079750;28;20048;-69
2023/09/22 05:41:58;;;;;;;1.30;0.65;;;;;;;;;;5079276;28;20052;-69
2023/09/22 05:44:28;;;;;;;1.92;0.98;;;;;;;;;;5071945;28;20149;-69
2023/09/22 05:46:57;;;;;;;2.05;0.77;;;;;;;;;;5081522;28;20079;-68
2023/09/22 05:49:27;;;;;;;2.25;0.88;;;;;;;;;;5080930;28;20437;-70
2023/09/22 05:51:56;;;;;;;1.50;0.77;;;;;;;;;;5079919;28;20048;-70
2023/09/22 05:54:24;;;;;;;1.73;0.82;;;;;;;;;;5080631;28;20412;-69
2023/09/22 05:56:54;;;;;;;4.10;0.60;;;;;;;;;;5082181;28;20052;-70
2023/09/22 05:59:24;;;;;;;0.73;0.63;;;;;;;;;;5077823;28;20083;-70
2023/09/22 06:01:53;;;;;;;2.50;1.05;;;;;;;;;;5081736;28;20040;-70
2023/09/22 06:04:21;;;;;;;1.27;0.98;;;;;;;;;;5079931;28;20052;-67
2023/09/22 06:06:50;;;;;;;0.70;0.70;;;;;;;;;;5080310;28;20345;-68
2023/09/22 06:09:21;;;;;;;1.63;0.80;;;;;;;;;;5080191;28;20040;-68
2023/09/22 06:11:50;;;;;;;2.28;0.98;;;;;;;;;;5076504;28;20136;-68
2023/09/22 06:14:19;;;;;;;1.23;0.85;;;;;;;;;;5081151;28;20664;-68
2023/09/22 06:16:49;;;;;;;2.45;0.88;;;;;;;;;;5079770;28;21422;-68
2023/09/22 06:19:20;;;;;;;2.08;0.90;;;;;;;;;;5082163;28;20043;-68
2023/09/22 06:21:48;;;;;;;0.70;0.60;;;;;;;;;;5081192;28;20445;-68
2023/09/22 06:24:17;;;;;;;3.20;0.82;;;;;;;;;;5081400;28;20825;-67
2023/09/22 06:26:46;;;;;;;0.93;0.70;;;;;;;;;;5080824;28;20128;-69
2023/09/22 06:29:15;;;;;;;3.40;2.25;;;;;;;;;;5082894;28;20046;-67
2023/09/22 06:31:45;;;;;;;1.17;0.93;;;;;;;;;;5080210;28;20044;-67
2023/09/22 06:34:13;;;;;;;3.90;1.00;;;;;;;;;;5079198;28;20477;-67
2023/09/22 06:36:42;;;;;;;1.92;0.73;;;;;;;;;;5081745;28;20717;-67
2023/09/22 06:39:10;;;;;;;0.75;0.70;;;;;;;;;;5083681;28;20052;-68
2023/09/22 06:41:39;;;;;;;1.20;0.77;;;;;;;;;;5079699;28;20052;-67
2023/09/22 06:44:07;;;;;;;2.53;1.15;;;;;;;;;;5081550;28;20082;-67
2023/09/22 06:46:36;;;;;;;1.33;0.80;;;;;;;;;;5080691;28;20446;-67
2023/09/22 06:49:07;;;;;;;2.03;1.02;;;;;;;;;;5082749;28;20067;-67
2023/09/22 06:51:38;;;;;;;1.45;0.90;;;;;;;;;;5078587;28;20055;-67
2023/09/22 06:54:06;;;;;;;3.15;0.88;;;;;;;;;;5081280;28;20048;-68
2023/09/22 06:56:36;;;;;;;4.70;1.10;;;;;;;;;;5081431;28;20070;-68
2023/09/22 06:59:18;;;;;;;1.83;0.95;;;;;;;;;;5082510;28;20135;-72
2023/09/22 07:01:46;;;;;;;1.48;0.75;;;;;;;;;;5081098;28;20044;-71
2023/09/22 07:04:17;;;;;;;2.17;0.80;;;;;;;;;;5082264;28;20051;-70
2023/09/22 07:06:45;;;;;;;2.22;1.02;;;;;;;;;;5080746;28;20048;-71
2023/09/22 07:09:14;;;;;;;1.35;0.88;;;;;;;;;;5084305;28;20050;-71
2023/09/22 07:11:42;;;;;;;1.48;0.98;;;;;;;;;;5081985;28;20160;-71
2023/09/22 07:14:11;;;;;;;1.17;0.70;;;;;;;;;;5083378;28;20493;-69
2023/09/22 07:16:39;;;;;;;0.70;0.70;;;;;;;;;;5076701;28;20040;-71
2023/09/22 07:19:08;;;;;;;1.95;0.77;;;;;;;;;;5082846;28;20075;-70
2023/09/22 07:21:38;;;;;;;3.25;1.20;;;;;;;;;;5081251;28;20052;-71
2023/09/22 07:24:07;;;;;;;1.40;0.93;;;;;;;;;;5086380;28;20140;-70
2023/09/22 07:26:36;;;;;;;0.88;0.60;;;;;;;;;;5082181;28;20047;-71
2023/09/22 07:29:04;;;;;;;1.17;0.80;;;;;;;;;;5085165;28;20052;-71
2023/09/22 07:31:32;;;;;;;1.52;0.90;;;;;;;;;;5085623;28;20163;-72
2023/09/22 07:34:02;;;;;;;1.05;0.70;;;;;;;;;;5087090;28;20052;-72
2023/09/22 07:36:30;;;;;;;1.00;0.77;;;;;;;;;;5083213;28;20586;-70
2023/09/22 07:39:00;;;;;;;1.30;0.90;;;;;;;;;;5086140;28;20052;-72
2023/09/22 07:41:28;;;;;;;1.67;0.80;;;;;;;;;;5084137;28;20140;-72
2023/09/22 07:43:57;;;;;;;1.02;0.77;;;;;;;;;;5087144;28;20104;-71
2023/09/22 07:46:25;;;;;;;1.00;0.90;;;;;;;;;;5085442;28;20061;-72
2023/09/22 07:48:54;;;;;;;3.80;0.90;;;;;;;;;;5085979;28;20050;-73
2023/09/22 07:51:22;;;;;;;0.95;0.80;;;;;;;;;;5083662;28;20044;-72
2023/09/22 07:53:51;;;;;;;3.03;1.42;;;;;;;;;;5080891;28;20063;-73
2023/09/22 07:56:21;;;;;;;0.80;0.70;;;;;;;;;;5081503;28;20481;-73
2023/09/22 07:58:49;;;;;;;4.88;0.75;;;;;;;;;;5087221;28;20047;-71
2023/09/22 08:01:38;;;;;;;2.97;0.50;;;;;;;;;;5085384;28;20052;-72
2023/09/22 08:04:08;;;;;;;1.05;0.75;;;;;;;;;;5082483;28;20048;-72
2023/09/22 08:06:37;;;;;;;2.28;0.85;;;;;;;;;;5083662;28;20055;-70
2023/09/22 08:09:05;;;;;;;1.02;0.70;;;;;;;;;;5086408;28;20046;-70
2023/09/22 08:11:35;;;;;;;1.05;0.63;;;;;;;;;;5081919;28;20046;-72
2023/09/22 08:14:04;;;;;;;2.65;0.60;;;;;;;;;;5079275;28;20044;-72
2023/09/22 08:16:32;;;;;;;1.90;0.93;;;;;;;;;;5082706;28;20288;-71
2023/09/22 08:19:01;;;;;;;0.68;0.60;;;;;;;;;;5083335;28;20047;-70
2023/09/22 08:21:29;;;;;;;2.70;0.70;;;;;;;;;;5081067;28;20044;-72
2023/09/22 08:23:58;;;;;;;3.13;1.15;;;;;;;;;;5084264;28;20044;-71
2023/09/22 08:26:27;;;;;;;1.77;0.90;;;;;;;;;;5081131;28;20051;-70
2023/09/22 08:28:57;;;;;;;0.80;0.80;;;;;;;;;;5082130;28;20047;-71
2023/09/22 08:31:26;;;;;;;1.33;0.88;;;;;;;;;;5082256;28;20064;-71
2023/09/22 08:33:55;;;;;;;0.70;0.70;;;;;;;;;;5078763;28;20119;-70
2023/09/22 08:36:24;;;;;;;1.95;1.10;;;;;;;;;;5082206;28;20471;-71
2023/09/22 08:38:52;;;;;;;1.42;0.88;;;;;;;;;;5083697;28;20739;-70
2023/09/22 08:41:21;;;;;;;2.35;0.80;;;;;;;;;;5082345;28;20075;-71
2023/09/22 08:43:49;;;;;;;6.32;0.80;;;;;;;;;;5084947;28;20056;-71
2023/09/22 08:46:19;;;;;;;1.10;0.70;;;;;;;;;;5086047;28;20150;-69
2023/09/22 08:48:48;;;;;;;2.22;1.10;;;;;;;;;;5084392;28;20044;-70
2023/09/22 08:51:17;;;;;;;1.45;0.85;;;;;;;;;;5080993;28;20420;-69
2023/09/22 08:53:46;;;;;;;3.10;0.85;;;;;;;;;;5081419;28;20055;-70
2023/09/22 08:56:14;;;;;;;1.95;1.00;;;;;;;;;;5081571;28;20101;-71
2023/09/22 08:58:43;;;;;;;1.73;1.02;;;;;;;;;;5082524;28;20048;-70
2023/09/22 09:01:12;;;;;;;0.85;0.73;;;;;;;;;;5085220;28;20056;-71
2023/09/22 09:03:44;;;;;;;1.75;0.80;;;;;;;;;;5077879;28;20043;-72
2023/09/22 09:06:17;;;;;;;1.27;0.88;;;;;;;;;;5081866;28;20036;-72
2023/09/22 09:09:02;;;;;;;2.15;0.90;;;;;;;;;;5081327;28;20052;-71
2023/09/22 09:11:30;;;;;;;1.10;0.75;;;;;;;;;;5083899;28;20044;-71
2023/09/22 09:13:58;;;;;;;1.63;0.77;;;;;;;;;;5084088;28;20048;-71
2023/09/22 09:16:31;;;;;;;1.80;0.90;;;;;;;;;;5086356;28;20052;-70
2023/09/22 09:19:15;;;;;;;0.98;0.77;;;;;;;;;;5082912;28;20043;-70
2023/09/22 09:21:58;;;;;;;1.27;0.85;;;;;;;;;;5083533;28;20065;-69
2023/09/22 09:24:28;;;;;;;1.95;0.70;;;;;;;;;;5084236;28;20048;-68
2023/09/22 09:26:56;;;;;;;1.88;0.90;;;;;;;;;;5083056;28;20048;-69
2023/09/22 09:29:27;;;;;;;2.10;0.93;;;;;;;;;;5082579;28;20052;-69
2023/09/22 09:32:00;;;;;;;1.67;0.75;;;;;;;;;;5084560;28;20036;-69
2023/09/22 09:34:39;;;;;;;1.08;0.90;;;;;;;;;;5078103;28;20489;-70
2023/09/22 09:37:13;;;;;;;2.25;0.68;;;;;;;;;;5081427;28;20452;-69
2023/09/22 09:39:47;;;;;;;1.70;0.80;;;;;;;;;;5082212;28;20063;-69
2023/09/22 09:42:16;;;;;;;1.45;0.82;;;;;;;;;;5083223;28;20143;-69
2023/09/22 09:44:49;;;;;;;1.05;0.70;;;;;;;;;;5084072;28;20040;-69
2023/09/22 09:47:22;;;;;;;1.88;0.82;;;;;;;;;;5081911;28;20503;-69
2023/09/22 09:49:54;;;;;;;0.90;0.60;;;;;;;;;;5079932;28;20467;-69
2023/09/22 09:52:24;;;;;;;1.58;0.85;;;;;;;;;;5082827;28;21686;-69
2023/09/22 09:54:58;;;;;;;2.30;0.85;;;;;;;;;;5079439;28;20055;-69
2023/09/22 09:57:28;;;;;;;1.95;0.80;;;;;;;;;;5079418;28;20468;-69
2023/09/22 09:59:57;;;;;;;1.55;0.90;;;;;;;;;;5079212;28;20818;-69
2023/09/22 10:02:26;;;;;;;1.35;0.88;;;;;;;;;;5081275;28;20047;-69
2023/09/22 10:04:55;;;;;;;4.45;1.00;;;;;;;;;;5083710;28;20048;-69
2023/09/22 10:07:24;;;;;;;2.33;1.00;;;;;;;;;;5080860;28;20051;-69
2023/09/22 10:09:54;;;;;;;1.52;0.82;;;;;;;;;;5086156;28;20081;-69
2023/09/22 10:12:22;;;;;;;1.20;0.77;;;;;;;;;;5081953;28;20143;-68
2023/09/22 10:14:53;;;;;;;1.20;0.80;;;;;;;;;;5079954;28;20052;-68
2023/09/22 10:17:22;;;;;;;1.83;0.80;;;;;;;;;;5080597;28;20044;-68
2023/09/22 10:19:51;;;;;;;3.22;0.80;;;;;;;;;;5077772;28;20048;-68
2023/09/22 10:22:20;;;;;;;1.15;0.70;;;;;;;;;;5083265;28;20048;-68
2023/09/22 10:25:06;;;;;;;1.90;0.90;;;;;;;;;;5085049;28;20113;-68
2023/09/22 10:27:54;;;;;;;2.58;1.15;;;;;;;;;;5081359;28;20069;-69
2023/09/22 10:30:45;;;;;;;1.73;1.40;;;;;;;;;;5082901;28;20536;-68
2023/09/22 10:33:29;;;;;;;1.65;0.93;;;;;;;;;;5083404;28;20039;-68
2023/09/22 10:35:59;;;;;;;1.75;0.80;;;;;;;;;;5082232;28;20044;-69
2023/09/22 10:38:27;;;;;;;2.92;0.80;;;;;;;;;;5082941;28;20338;-69
2023/09/22 10:41:05;;;;;;;2.55;0.90;;;;;;;;;;5079116;28;20051;-69
2023/09/22 10:43:36;;;;;;;1.05;0.70;;;;;;;;;;5086659;28;20054;-68
2023/09/22 10:46:04;;;;;;;1.58;0.77;;;;;;;;;;5083900;28;20055;-68
2023/09/22 10:48:35;;;;;;;0.60;0.60;;;;;;;;;;5082255;28;20143;-68
2023/09/22 10:51:06;;;;;;;1.85;0.80;;;;;;;;;;5079601;28;20040;-68
2023/09/22 10:53:39;;;;;;;0.82;0.60;;;;;;;;;;5081098;28;20048;-70
2023/09/22 10:56:07;;;;;;;0.98;0.75;;;;;;;;;;5079748;28;20048;-69
2023/09/22 10:58:37;;;;;;;4.90;0.88;;;;;;;;;;5083714;28;20044;-68
2023/09/22 11:01:07;;;;;;;2.08;1.10;;;;;;;;;;5080224;28;20052;-68
2023/09/22 11:03:37;;;;;;;0.70;0.70;;;;;;;;;;5079562;28;20129;-68
2023/09/22 11:06:07;;;;;;;1.45;1.17;;;;;;;;;;5078790;28;20040;-68
2023/09/22 11:08:47;;;;;;;0.85;0.73;;;;;;;;;;5084508;28;20067;-68
2023/09/22 11:11:17;;;;;;;1.05;0.90;;;;;;;;;;5084923;28;20098;-68
2023/09/22 11:13:53;;;;;;;1.00;0.82;;;;;;;;;;5082419;28;20496;-68
2023/09/22 11:16:22;;;;;;;0.70;0.60;;;;;;;;;;5083969;28;20044;-68
2023/09/22 11:18:50;;;;;;;1.05;0.88;;;;;;;;;;5088891;28;20084;-68
2023/09/22 11:21:20;;;;;;;2.10;0.93;;;;;;;;;;5082163;28;20044;-68
2023/09/22 11:23:50;;;;;;;0.75;0.60;;;;;;;;;;5085248;28;20043;-68
2023/09/22 11:26:19;;;;;;;1.02;0.80;;;;;;;;;;5079443;28;20049;-68
2023/09/22 11:28:48;;;;;;;1.50;0.80;;;;;;;;;;5081473;28;20044;-68
2023/09/22 11:31:19;;;;;;;0.80;0.63;;;;;;;;;;5082969;28;20483;-68
2023/09/22 11:34:01;;;;;;;2.92;0.90;;;;;;;;;;5081337;28;20505;-68
2023/09/22 11:36:30;;;;;;;2.38;0.90;;;;;;;;;;5075008;28;20048;-67
2023/09/22 11:38:58;;;;;;;1.00;0.77;;;;;;;;;;5084037;28;20084;-68
2023/09/22 11:41:27;;;;;;;1.05;0.73;;;;;;;;;;5083260;28;20128;-68
2023/09/22 11:43:55;;;;;;;1.63;0.80;;;;;;;;;;5084836;28;20044;-69
2023/09/22 11:46:27;;;;;;;1.05;0.60;;;;;;;;;;5083033;28;20386;-68
2023/09/22 11:48:58;;;;;;;1.42;0.77;;;;;;;;;;5083727;28;20526;-67
2023/09/22 11:51:50;;;;;;;1.20;0.75;;;;;;;;;;5082127;28;20177;-67
2023/09/22 11:54:20;;;;;;;1.33;0.88;;;;;;;;;;5081280;28;20079;-67
2023/09/22 11:56:50;;;;;;;2.05;1.00;;;;;;;;;;5081282;28;20040;-67
2023/09/22 11:59:19;;;;;;;1.00;0.80;;;;;;;;;;5083125;28;20040;-67
2023/09/22 12:01:50;;;;;;;1.40;0.80;;;;;;;;;;5080591;28;20040;-67
2023/09/22 12:04:19;;;;;;;1.27;0.90;;;;;;;;;;5079026;28;20313;-67
2023/09/22 12:06:48;;;;;;;0.70;0.70;;;;;;;;;;5077357;28;20131;-68
2023/09/22 12:09:18;;;;;;;1.13;0.73;;;;;;;;;;5078817;28;20063;-67
2023/09/22 12:11:47;;;;;;;1.00;0.75;;;;;;;;;;5080265;28;20500;-67
2023/09/22 12:14:16;;;;;;;0.60;0.60;;;;;;;;;;5084186;28;20129;-68
2023/09/22 12:16:45;;;;;;;0.88;0.75;;;;;;;;;;5080101;28;20331;-68
2023/09/22 12:19:16;;;;;;;2.53;1.08;;;;;;;;;;5077802;28;20532;-66
2023/09/22 12:21:46;;;;;;;1.20;1.10;;;;;;;;;;5076290;28;20056;-68
2023/09/22 12:24:14;;;;;;;1.33;0.95;;;;;;;;;;5084415;28;20079;-68
2023/09/22 12:26:43;;;;;;;1.65;0.70;;;;;;;;;;5078643;28;20050;-67
2023/09/22 12:29:13;;;;;;;0.88;0.65;;;;;;;;;;5083129;28;20485;-67
2023/09/22 12:31:42;;;;;;;1.15;0.70;;;;;;;;;;5086350;28;20500;-66
2023/09/22 12:34:11;;;;;;;1.40;0.80;;;;;;;;;;5079340;28;20166;-67
2023/09/22 12:36:41;;;;;;;3.72;1.00;;;;;;;;;;5080078;28;20043;-67
2023/09/22 12:39:10;;;;;;;1.38;0.52;;;;;;;;;;5083374;28;20052;-67
2023/09/22 12:41:39;;;;;;;2.63;0.60;;;;;;;;;;5082706;28;20055;-67
2023/09/22 12:44:07;;;;;;;2.28;0.65;;;;;;;;;;5084107;28;20760;-67
2023/09/22 12:46:36;;;;;;;0.93;0.85;;;;;;;;;;5084712;28;20628;-66
2023/09/22 12:49:04;;;;;;;3.65;0.80;;;;;;;;;;5083043;28;20040;-67
2023/09/22 12:51:33;;;;;;;0.80;0.70;;;;;;;;;;5079041;28;20349;-67
2023/09/22 12:54:02;;;;;;;2.05;0.60;;;;;;;;;;5086413;28;20090;-67
2023/09/22 12:56:31;;;;;;;0.70;0.50;;;;;;;;;;5082595;28;20044;-67
2023/09/22 12:58:59;;;;;;;0.90;0.70;;;;;;;;;;5083225;28;20107;-67
2023/09/22 13:01:28;;;;;;;0.75;0.52;;;;;;;;;;5085841;28;20044;-67
2023/09/22 13:03:56;;;;;;;2.22;0.70;;;;;;;;;;5074837;28;20055;-67
2023/09/22 13:06:25;;;;;;;0.70;0.60;;;;;;;;;;5078684;28;20493;-69
2023/09/22 13:08:54;;;;;;;2.78;0.70;;;;;;;;;;5075391;28;20039;-68
2023/09/22 13:11:24;;;;;;;0.60;0.60;;;;;;;;;;5086008;28;20105;-68
2023/09/22 13:13:53;;;;;;;1.02;0.60;;;;;;;;;;5077746;28;20397;-68
2023/09/22 13:16:21;;;;;;;1.35;0.60;;;;;;;;;;5081940;28;20335;-67
2023/09/22 13:18:50;;;;;;;2.72;0.70;;;;;;;;;;5086356;28;20072;-67
2023/09/22 13:21:19;;;;;;;1.65;0.80;;;;;;;;;;5084137;28;20036;-67
2023/09/22 13:23:47;;;;;;;2.63;0.85;;;;;;;;;;5077636;28;20497;-67
2023/09/22 13:26:19;;;;;;;0.70;0.70;;;;;;;;;;5080298;28;20134;-68
2023/09/22 13:28:50;;;;;;;0.90;0.60;;;;;;;;;;5073626;28;20044;-68
2023/09/22 13:31:19;;;;;;;0.70;0.60;;;;;;;;;;5082842;28;20054;-68
2023/09/22 13:33:48;;;;;;;1.48;0.65;;;;;;;;;;5083345;28;20509;-66
2023/09/22 13:36:17;;;;;;;1.40;0.60;;;;;;;;;;5081459;28;20067;-66
2023/09/22 13:38:45;;;;;;;1.77;0.90;;;;;;;;;;5080138;28;20039;-66
2023/09/22 13:41:14;;;;;;;1.63;0.60;;;;;;;;;;5084278;28;20056;-65
2023/09/22 13:43:43;;;;;;;1.70;0.60;;;;;;;;;;5084872;28;20404;-66
2023/09/22 13:46:14;;;;;;;2.15;0.60;;;;;;;;;;5082876;28;20143;-66
2023/09/22 13:48:44;;;;;;;1.85;0.60;;;;;;;;;;5081751;28;20040;-66
2023/09/22 13:51:13;;;;;;;2.22;0.50;;;;;;;;;;5082319;28;20093;-67
2023/09/22 13:53:41;;;;;;;0.70;0.70;;;;;;;;;;5079062;28;20060;-66
2023/09/22 13:56:17;;;;;;;1.10;0.70;;;;;;;;;;5082344;28;20076;-66
2023/09/22 13:58:48;;;;;;;1.17;0.80;;;;;;;;;;5083770;28;20097;-66
2023/09/22 14:01:21;;;;;;;1.38;0.75;;;;;;;;;;5083421;28;20044;-66
2023/09/22 14:03:50;;;;;;;2.47;0.80;;;;;;;;;;5083891;28;20717;-67
2023/09/22 14:06:19;;;;;;;0.60;0.60;;;;;;;;;;5083896;28;20418;-66
2023/09/22 14:08:49;;;;;;;0.60;0.60;;;;;;;;;;5083226;28;20559;-66
2023/09/22 14:11:18;;;;;;;2.15;0.88;;;;;;;;;;5082636;28;20040;-66
2023/09/22 14:13:46;;;;;;;1.00;0.70;;;;;;;;;;5081182;28;20364;-66
2023/09/22 14:16:16;;;;;;;3.70;0.70;;;;;;;;;;5080822;28;20052;-66
2023/09/22 14:18:46;;;;;;;0.73;0.60;;;;;;;;;;5080353;28;20485;-66
2023/09/22 14:21:15;;;;;;;1.20;0.60;;;;;;;;;;5080999;28;20446;-66
2023/09/22 14:23:44;;;;;;;1.48;0.73;;;;;;;;;;5084290;28;20048;-66
2023/09/22 14:26:13;;;;;;;1.00;0.90;;;;;;;;;;5087581;28;20051;-66
2023/09/22 14:28:42;;;;;;;2.50;0.65;;;;;;;;;;5077525;28;20083;-67
2023/09/22 14:31:15;;;;;;;1.75;0.80;;;;;;;;;;5083330;28;20507;-66
2023/09/22 14:33:45;;;;;;;1.85;0.80;;;;;;;;;;5080257;28;20056;-66
2023/09/22 14:36:14;;;;;;;3.65;0.68;;;;;;;;;;5082016;28;20519;-66
2023/09/22 14:38:43;;;;;;;0.80;0.60;;;;;;;;;;5081630;28;20492;-66
2023/09/22 14:41:13;;;;;;;3.75;0.70;;;;;;;;;;5084262;28;20103;-66
2023/09/22 14:43:41;;;;;;;0.73;0.73;;;;;;;;;;5083418;28;20059;-66
2023/09/22 14:46:14;;;;;;;0.77;0.73;;;;;;;;;;5081332;28;20051;-67
2023/09/22 14:48:43;;;;;;;1.50;0.80;;;;;;;;;;5086224;28;20408;-66
2023/09/22 14:51:14;;;;;;;1.65;0.80;;;;;;;;;;5082716;28;20055;-67
2023/09/22 14:53:42;;;;;;;0.60;0.50;;;;;;;;;;5080194;28;20056;-66
2023/09/22 14:56:11;;;;;;;0.70;0.70;;;;;;;;;;5081585;28;20665;-67
2023/09/22 14:58:40;;;;;;;1.02;0.60;;;;;;;;;;5083754;28;20047;-66